sensor_id;sensor_type;location;lat;lon;timestamp;pressure;altitude;pressure_sealevel;temperature;humidity
64192;BME280;50497;50.720;-2.084;2024-01-25T00:00:18;103910.53;;;7.69;100.00
64192;BME280;50497;50.720;-2.084;2024-01-25T00:02:43;103899.03;;;7.71;100.00
64192;BME280;50497;50.720;-2.084;2024-01-25T00:05:09;103876.72;;;7.65;100.00
64192;BME280;50497;50.720;-2.084;2024-01-25T00:07:34;103858.13;;;7.69;100.00
64192;BME280;50497;50.720;-2.084;2024-01-25T00:10:00;103846.69;;;7.78;100.00
64192;BME280;50497;50.720;-2.084;2024-01-25T00:12:26;103828.84;;;7.71;100.00
64192;BME280;50497;50.720;-2.084;2024-01-25T00:14:52;103822.78;;;7.83;100.00
64192;BME280;50497;50.720;-2.084;2024-01-25T00:17:18;103819.28;;;7.85;100.00
64192;BME280;50497;50.720;-2.084;2024-01-25T00:19:43;103822.91;;;7.90;100.00
64192;BME280;50497;50.720;-2.084;2024-01-25T00:22:08;103820.94;;;7.80;100.00
64192;BME280;50497;50.720;-2.084;2024-01-25T00:24:34;103840.56;;;7.84;100.00
64192;BME280;50497;50.720;-2.084;2024-01-25T00:26:59;103837.88;;;7.81;100.00
64192;BME280;50497;50.720;-2.084;2024-01-25T00:29:25;103866.34;;;7.86;100.00
64192;BME280;50497;50.720;-2.084;2024-01-25T00:31:50;103875.34;;;7.93;100.00
64192;BME280;50497;50.720;-2.084;2024-01-25T00:34:16;103897.59;;;7.96;100.00
64192;BME280;50497;50.720;-2.084;2024-01-25T00:36:41;103917.25;;;8.03;100.00
64192;BME280;50497;50.720;-2.084;2024-01-25T00:39:07;103921.81;;;8.10;100.00
64192;BME280;50497;50.720;-2.084;2024-01-25T00:41:34;103945.00;;;8.16;100.00
64192;BME280;50497;50.720;-2.084;2024-01-25T00:44:00;103955.66;;;8.16;100.00
64192;BME280;50497;50.720;-2.084;2024-01-25T00:46:27;103959.28;;;8.20;100.00
64192;BME280;50497;50.720;-2.084;2024-01-25T00:48:53;103961.09;;;8.22;100.00
64192;BME280;50497;50.720;-2.084;2024-01-25T00:51:24;103968.25;;;8.26;100.00
64192;BME280;50497;50.720;-2.084;2024-01-25T00:53:50;103961.06;;;8.19;100.00
64192;BME280;50497;50.720;-2.084;2024-01-25T00:56:15;103970.91;;;8.25;100.00
64192;BME280;50497;50.720;-2.084;2024-01-25T00:58:41;103985.28;;;8.35;100.00
64192;BME280;50497;50.720;-2.084;2024-01-25T01:01:07;103983.63;;;8.43;100.00
64192;BME280;50497;50.720;-2.084;2024-01-25T01:03:33;103980.84;;;8.37;100.00
64192;BME280;50497;50.720;-2.084;2024-01-25T01:05:59;103980.88;;;8.40;100.00
64192;BME280;50497;50.720;-2.084;2024-01-25T01:08:24;103969.28;;;8.36;100.00
64192;BME280;50497;50.720;-2.084;2024-01-25T01:10:51;103982.78;;;8.44;100.00
64192;BME280;50497;50.720;-2.084;2024-01-25T01:13:16;103965.88;;;8.43;100.00
64192;BME280;50497;50.720;-2.084;2024-01-25T01:15:42;103972.19;;;8.51;100.00
64192;BME280;50497;50.720;-2.084;2024-01-25T01:18:07;103960.72;;;8.57;100.00
64192;BME280;50497;50.720;-2.084;2024-01-25T01:20:32;103928.63;;;8.53;100.00
64192;BME280;50497;50.720;-2.084;2024-01-25T01:22:58;103912.72;;;8.60;100.00
64192;BME280;50497;50.720;-2.084;2024-01-25T01:25:23;103890.47;;;8.63;100.00
64192;BME280;50497;50.720;-2.084;2024-01-25T01:27:49;103872.66;;;8.59;100.00
64192;BME280;50497;50.720;-2.084;2024-01-25T01:30:14;103863.69;;;8.52;100.00
64192;BME280;50497;50.720;-2.084;2024-01-25T01:32:40;103867.19;;;8.48;100.00
64192;BME280;50497;50.720;-2.084;2024-01-25T01:35:05;103902.06;;;8.62;100.00
64192;BME280;50497;50.720;-2.084;2024-01-25T01:37:31;103902.06;;;8.62;100.00
64192;BME280;50497;50.720;-2.084;2024-01-25T01:39:56;103913.66;;;8.65;100.00
64192;BME280;50497;50.720;-2.084;2024-01-25T01:42:23;103916.31;;;8.65;100.00
64192;BME280;50497;50.720;-2.084;2024-01-25T01:44:50;103945.72;;;8.68;100.00
64192;BME280;50497;50.720;-2.084;2024-01-25T01:47:17;103953.69;;;8.65;100.00
64192;BME280;50497;50.720;-2.084;2024-01-25T01:49:42;103951.81;;;8.57;100.00
64192;BME280;50497;50.720;-2.084;2024-01-25T01:52:09;103972.38;;;8.65;100.00
64192;BME280;50497;50.720;-2.084;2024-01-25T01:54:34;103993.81;;;8.72;100.00
64192;BME280;50497;50.720;-2.084;2024-01-25T01:57:01;104013.38;;;8.71;100.00
64192;BME280;50497;50.720;-2.084;2024-01-25T01:59:27;104033.88;;;8.72;100.00
64192;BME280;50497;50.720;-2.084;2024-01-25T02:01:54;104056.19;;;8.77;100.00
64192;BME280;50497;50.720;-2.084;2024-01-25T02:04:19;104050.72;;;8.69;100.00
64192;BME280;50497;50.720;-2.084;2024-01-25T02:06:45;104063.22;;;8.73;100.00
64192;BME280;50497;50.720;-2.084;2024-01-25T02:09:11;104064.22;;;8.78;100.00
64192;BME280;50497;50.720;-2.084;2024-01-25T02:11:37;104067.84;;;8.85;100.00
64192;BME280;50497;50.720;-2.084;2024-01-25T02:14:02;104067.91;;;8.91;100.00
64192;BME280;50497;50.720;-2.084;2024-01-25T02:16:28;104093.03;;;9.05;100.00
64192;BME280;50497;50.720;-2.084;2024-01-25T02:18:53;104111.72;;;9.05;100.00
64192;BME280;50497;50.720;-2.084;2024-01-25T02:21:22;104132.19;;;9.03;100.00
64192;BME280;50497;50.720;-2.084;2024-01-25T02:23:47;104156.38;;;9.16;100.00
64192;BME280;50497;50.720;-2.084;2024-01-25T02:26:13;104175.00;;;9.08;100.00
64192;BME280;50497;50.720;-2.084;2024-01-25T02:28:38;104208.94;;;9.15;100.00
64192;BME280;50497;50.720;-2.084;2024-01-25T02:31:03;104227.66;;;9.17;100.00
64192;BME280;50497;50.720;-2.084;2024-01-25T02:33:29;104240.03;;;9.12;100.00
64192;BME280;50497;50.720;-2.084;2024-01-25T02:35:55;104253.31;;;9.05;100.00
64192;BME280;50497;50.720;-2.084;2024-01-25T02:38:21;104290.00;;;9.19;100.00
64192;BME280;50497;50.720;-2.084;2024-01-25T02:40:46;104299.69;;;9.11;100.00
64192;BME280;50497;50.720;-2.084;2024-01-25T02:43:12;104344.25;;;9.13;100.00
64192;BME280;50497;50.720;-2.084;2024-01-25T02:45:37;104356.88;;;9.22;100.00
64192;BME280;50497;50.720;-2.084;2024-01-25T02:48:04;104364.88;;;9.22;100.00
64192;BME280;50497;50.720;-2.084;2024-01-25T02:50:29;104365.63;;;9.13;100.00
64192;BME280;50497;50.720;-2.084;2024-01-25T02:52:54;104363.81;;;9.12;100.00
64192;BME280;50497;50.720;-2.084;2024-01-25T02:55:20;104368.41;;;9.21;100.00
64192;BME280;50497;50.720;-2.084;2024-01-25T02:57:46;104380.00;;;9.20;100.00
64192;BME280;50497;50.720;-2.084;2024-01-25T03:00:11;104381.78;;;9.21;100.00
64192;BME280;50497;50.720;-2.084;2024-01-25T03:02:37;104375.53;;;9.20;100.00
64192;BME280;50497;50.720;-2.084;2024-01-25T03:05:03;104373.78;;;9.22;100.00
64192;BME280;50497;50.720;-2.084;2024-01-25T03:07:28;104354.97;;;9.15;100.00
64192;BME280;50497;50.720;-2.084;2024-01-25T03:09:54;104348.69;;;9.13;100.00
64192;BME280;50497;50.720;-2.084;2024-01-25T03:12:19;104332.81;;;9.22;100.00
64192;BME280;50497;50.720;-2.084;2024-01-25T03:14:45;104308.88;;;9.28;100.00
64192;BME280;50497;50.720;-2.084;2024-01-25T03:17:10;104229.44;;;9.18;100.00
64192;BME280;50497;50.720;-2.084;2024-01-25T03:19:37;104197.44;;;9.22;100.00
64192;BME280;50497;50.720;-2.084;2024-01-25T03:22:03;103987.25;;;9.21;100.00
64192;BME280;50497;50.720;-2.084;2024-01-25T03:24:28;103968.59;;;9.26;100.00
64192;BME280;50497;50.720;-2.084;2024-01-25T03:26:53;103934.66;;;9.16;100.00
64192;BME280;50497;50.720;-2.084;2024-01-25T03:29:19;103905.34;;;9.23;100.00
64192;BME280;50497;50.720;-2.084;2024-01-25T03:31:45;103901.75;;;9.20;100.00
64192;BME280;50497;50.720;-2.084;2024-01-25T03:34:10;103885.75;;;9.26;100.00
64192;BME280;50497;50.720;-2.084;2024-01-25T03:36:35;103861.69;;;9.24;100.00
64192;BME280;50497;50.720;-2.084;2024-01-25T03:39:02;103851.00;;;9.21;100.00
64192;BME280;50497;50.720;-2.084;2024-01-25T03:41:28;103851.00;;;9.24;100.00
64192;BME280;50497;50.720;-2.084;2024-01-25T03:43:54;103836.75;;;9.24;100.00
64192;BME280;50497;50.720;-2.084;2024-01-25T03:46:20;103837.63;;;9.23;100.00
64192;BME280;50497;50.720;-2.084;2024-01-25T03:48:45;103837.66;;;9.26;100.00
64192;BME280;50497;50.720;-2.084;2024-01-25T03:51:11;103829.63;;;9.24;100.00
64192;BME280;50497;50.720;-2.084;2024-01-25T03:53:36;103836.81;;;9.29;100.00
64192;BME280;50497;50.720;-2.084;2024-01-25T03:56:02;103841.22;;;9.23;100.00
64192;BME280;50497;50.720;-2.084;2024-01-25T03:58:28;103832.31;;;9.26;100.00
64192;BME280;50497;50.720;-2.084;2024-01-25T04:00:53;103842.97;;;9.23;100.00
64192;BME280;50497;50.720;-2.084;2024-01-25T04:03:19;103844.81;;;9.27;100.00
64192;BME280;50497;50.720;-2.084;2024-01-25T04:05:44;103855.50;;;9.27;100.00
64192;BME280;50497;50.720;-2.084;2024-01-25T04:08:10;103846.59;;;9.27;100.00
64192;BME280;50497;50.720;-2.084;2024-01-25T04:10:35;103853.66;;;9.23;100.00
64192;BME280;50497;50.720;-2.084;2024-01-25T04:13:01;103849.19;;;9.19;100.00
64192;BME280;50497;50.720;-2.084;2024-01-25T04:15:27;103849.25;;;9.23;100.00
64192;BME280;50497;50.720;-2.084;2024-01-25T04:17:52;103852.75;;;9.21;100.00
64192;BME280;50497;50.720;-2.084;2024-01-25T04:20:19;103864.44;;;9.31;100.00
64192;BME280;50497;50.720;-2.084;2024-01-25T04:22:44;103864.41;;;9.29;100.00
64192;BME280;50497;50.720;-2.084;2024-01-25T04:25:10;103867.03;;;9.21;100.00
64192;BME280;50497;50.720;-2.084;2024-01-25T04:27:37;103883.09;;;9.28;100.00
64192;BME280;50497;50.720;-2.084;2024-01-25T04:30:04;103893.00;;;9.41;100.00
64192;BME280;50497;50.720;-2.084;2024-01-25T04:32:29;103904.63;;;9.48;100.00
64192;BME280;50497;50.720;-2.084;2024-01-25T04:34:54;103909.19;;;9.55;100.00
64192;BME280;50497;50.720;-2.084;2024-01-25T04:37:20;103895.75;;;9.49;100.00
64192;BME280;50497;50.720;-2.084;2024-01-25T04:39:45;103919.91;;;9.58;100.00
64192;BME280;50497;50.720;-2.084;2024-01-25T04:42:11;103914.53;;;9.61;100.00
64192;BME280;50497;50.720;-2.084;2024-01-25T04:44:36;103911.94;;;9.67;100.00
64192;BME280;50497;50.720;-2.084;2024-01-25T04:47:01;103838.84;;;9.67;100.00
64192;BME280;50497;50.720;-2.084;2024-01-25T04:49:27;103865.63;;;9.74;100.00
64192;BME280;50497;50.720;-2.084;2024-01-25T04:51:52;103864.72;;;9.71;100.00
64192;BME280;50497;50.720;-2.084;2024-01-25T04:54:18;103875.44;;;9.77;100.00
64192;BME280;50497;50.720;-2.084;2024-01-25T04:56:43;103864.69;;;9.69;100.00
64192;BME280;50497;50.720;-2.084;2024-01-25T04:59:09;103900.50;;;9.90;100.00
64192;BME280;50497;50.720;-2.084;2024-01-25T05:01:34;103906.78;;;9.95;100.00
64192;BME280;50497;50.720;-2.084;2024-01-25T05:04:00;103909.41;;;9.89;100.00
64192;BME280;50497;50.720;-2.084;2024-01-25T05:06:25;103920.16;;;9.98;100.00
64192;BME280;50497;50.720;-2.084;2024-01-25T05:08:51;103907.72;;;10.03;100.00
64192;BME280;50497;50.720;-2.084;2024-01-25T05:11:16;103914.84;;;10.07;100.00
64192;BME280;50497;50.720;-2.084;2024-01-25T05:13:42;103913.97;;;10.08;100.00
64192;BME280;50497;50.720;-2.084;2024-01-25T05:16:07;103929.16;;;10.12;100.00
64192;BME280;50497;50.720;-2.084;2024-01-25T05:18:32;103926.53;;;10.20;100.00
64192;BME280;50497;50.720;-2.084;2024-01-25T05:20:58;103963.97;;;10.20;100.00
64192;BME280;50497;50.720;-2.084;2024-01-25T05:23:23;103924.78;;;10.27;100.00
64192;BME280;50497;50.720;-2.084;2024-01-25T05:25:49;103929.28;;;10.34;100.00
64192;BME280;50497;50.720;-2.084;2024-01-25T05:28:15;103959.66;;;10.41;100.00
64192;BME280;50497;50.720;-2.084;2024-01-25T05:30:40;103956.97;;;10.33;100.00
64192;BME280;50497;50.720;-2.084;2024-01-25T05:33:06;103969.50;;;10.46;100.00
64192;BME280;50497;50.720;-2.084;2024-01-25T05:35:31;103979.31;;;10.47;100.00
64192;BME280;50497;50.720;-2.084;2024-01-25T05:37:59;103954.34;;;10.48;100.00
64192;BME280;50497;50.720;-2.084;2024-01-25T05:40:25;103996.28;;;10.48;100.00
64192;BME280;50497;50.720;-2.084;2024-01-25T05:42:50;103983.81;;;10.50;100.00
64192;BME280;50497;50.720;-2.084;2024-01-25T05:45:16;103982.91;;;10.54;100.00
64192;BME280;50497;50.720;-2.084;2024-01-25T05:47:42;103974.88;;;10.54;100.00
64192;BME280;50497;50.720;-2.084;2024-01-25T05:50:08;103959.69;;;10.48;100.00
64192;BME280;50497;50.720;-2.084;2024-01-25T05:52:33;103978.50;;;10.56;100.00
64192;BME280;50497;50.720;-2.084;2024-01-25T05:55:02;103980.28;;;10.60;100.00
64192;BME280;50497;50.720;-2.084;2024-01-25T05:57:27;103965.13;;;10.58;100.00
64192;BME280;50497;50.720;-2.084;2024-01-25T05:59:53;103954.41;;;10.56;100.00
64192;BME280;50497;50.720;-2.084;2024-01-25T06:02:18;103949.06;;;10.58;100.00
64192;BME280;50497;50.720;-2.084;2024-01-25T06:04:44;103922.25;;;10.56;100.00
64192;BME280;50497;50.720;-2.084;2024-01-25T06:07:09;103914.19;;;10.50;100.00
64192;BME280;50497;50.720;-2.084;2024-01-25T06:09:35;103924.94;;;10.58;100.00
64192;BME280;50497;50.720;-2.084;2024-01-25T06:12:01;103918.66;;;10.56;100.00
64192;BME280;50497;50.720;-2.084;2024-01-25T06:14:26;103896.38;;;10.58;100.00
64192;BME280;50497;50.720;-2.084;2024-01-25T06:16:52;103851.72;;;10.54;100.00
64192;BME280;50497;50.720;-2.084;2024-01-25T06:19:17;103848.16;;;10.50;100.00
64192;BME280;50497;50.720;-2.084;2024-01-25T06:21:43;103845.47;;;10.43;100.00
64192;BME280;50497;50.720;-2.084;2024-01-25T06:24:08;103838.34;;;10.49;100.00
64192;BME280;50497;50.720;-2.084;2024-01-25T06:26:34;103809.78;;;10.47;100.00
64192;BME280;50497;50.720;-2.084;2024-01-25T06:28:59;103799.06;;;10.45;100.00
64192;BME280;50497;50.720;-2.084;2024-01-25T06:31:25;103780.31;;;10.44;100.00
64192;BME280;50497;50.720;-2.084;2024-01-25T06:33:51;103766.06;;;10.43;100.00
64192;BME280;50497;50.720;-2.084;2024-01-25T06:36:18;103738.38;;;10.35;100.00
64192;BME280;50497;50.720;-2.084;2024-01-25T06:38:44;103734.81;;;10.33;100.00
64192;BME280;50497;50.720;-2.084;2024-01-25T06:41:09;103729.47;;;10.33;100.00
64192;BME280;50497;50.720;-2.084;2024-01-25T06:43:34;103715.19;;;10.34;100.00
64192;BME280;50497;50.720;-2.084;2024-01-25T06:46:00;103693.72;;;10.31;100.00
64192;BME280;50497;50.720;-2.084;2024-01-25T06:48:25;103686.63;;;10.30;100.00
64192;BME280;50497;50.720;-2.084;2024-01-25T06:50:51;103663.41;;;10.29;100.00
64192;BME280;50497;50.720;-2.084;2024-01-25T06:53:16;103640.22;;;10.28;100.00
64192;BME280;50497;50.720;-2.084;2024-01-25T06:55:42;103619.72;;;10.31;100.00
64192;BME280;50497;50.720;-2.084;2024-01-25T06:58:07;103596.50;;;10.29;100.00
64192;BME280;50497;50.720;-2.084;2024-01-25T07:00:33;103575.13;;;10.32;100.00
64192;BME280;50497;50.720;-2.084;2024-01-25T07:02:58;103543.91;;;10.29;100.00
64192;BME280;50497;50.720;-2.084;2024-01-25T07:05:24;103514.47;;;10.29;100.00
64192;BME280;50497;50.720;-2.084;2024-01-25T07:07:49;103483.25;;;10.36;100.00
64192;BME280;50497;50.720;-2.084;2024-01-25T07:10:15;103440.44;;;10.36;100.00
64192;BME280;50497;50.720;-2.084;2024-01-25T07:12:40;103423.47;;;10.35;100.00
64192;BME280;50497;50.720;-2.084;2024-01-25T07:15:06;103398.47;;;10.29;100.00
64192;BME280;50497;50.720;-2.084;2024-01-25T07:17:31;103381.56;;;10.27;100.00
64192;BME280;50497;50.720;-2.084;2024-01-25T07:19:57;103357.47;;;10.28;100.00
64192;BME280;50497;50.720;-2.084;2024-01-25T07:22:22;103328.94;;;10.35;100.00
64192;BME280;50497;50.720;-2.084;2024-01-25T07:24:48;103292.31;;;10.39;100.00
64192;BME280;50497;50.720;-2.084;2024-01-25T07:27:13;103270.03;;;10.40;100.00
64192;BME280;50497;50.720;-2.084;2024-01-25T07:29:39;103245.97;;;10.37;100.00
64192;BME280;50497;50.720;-2.084;2024-01-25T07:32:04;103201.34;;;10.31;100.00
64192;BME280;50497;50.720;-2.084;2024-01-25T07:34:30;103179.94;;;10.37;100.00
64192;BME280;50497;50.720;-2.084;2024-01-25T07:36:55;103147.81;;;10.40;100.00
64192;BME280;50497;50.720;-2.084;2024-01-25T07:39:21;103123.69;;;10.43;100.00
64192;BME280;50497;50.720;-2.084;2024-01-25T07:41:47;103088.91;;;10.43;100.00
64192;BME280;50497;50.720;-2.084;2024-01-25T07:44:13;103045.22;;;10.43;100.00
64192;BME280;50497;50.720;-2.084;2024-01-25T07:46:38;102993.53;;;10.38;100.00
64192;BME280;50497;50.720;-2.084;2024-01-25T07:49:04;102974.78;;;10.38;100.00
64192;BME280;50497;50.720;-2.084;2024-01-25T07:51:30;102936.44;;;10.35;100.00
64192;BME280;50497;50.720;-2.084;2024-01-25T07:53:55;102911.53;;;10.27;100.00
64192;BME280;50497;50.720;-2.084;2024-01-25T07:56:21;102879.41;;;10.29;100.00
64192;BME280;50497;50.720;-2.084;2024-01-25T07:58:48;102857.19;;;10.21;100.00
64192;BME280;50497;50.720;-2.084;2024-01-25T08:01:16;102860.84;;;10.15;100.00
64192;BME280;50497;50.720;-2.084;2024-01-25T08:03:42;102854.69;;;10.07;100.00
64192;BME280;50497;50.720;-2.084;2024-01-25T08:06:07;102862.75;;;10.05;100.00
64192;BME280;50497;50.720;-2.084;2024-01-25T08:08:33;102870.72;;;10.08;100.00
64192;BME280;50497;50.720;-2.084;2024-01-25T08:10:58;102873.50;;;9.99;100.00
64192;BME280;50497;50.720;-2.084;2024-01-25T08:13:23;102884.94;;;10.12;100.00
64192;BME280;50497;50.720;-2.084;2024-01-25T08:15:49;102910.81;;;10.11;100.00
64192;BME280;50497;50.720;-2.084;2024-01-25T08:18:15;102916.06;;;10.21;100.00
64192;BME280;50497;50.720;-2.084;2024-01-25T08:20:40;102924.09;;;10.19;100.00
64192;BME280;50497;50.720;-2.084;2024-01-25T08:23:07;102945.38;;;10.36;100.00
64192;BME280;50497;50.720;-2.084;2024-01-25T08:25:34;102931.06;;;10.39;100.00
64192;BME280;50497;50.720;-2.084;2024-01-25T08:27:59;102942.69;;;10.36;100.00
64192;BME280;50497;50.720;-2.084;2024-01-25T08:30:25;102943.50;;;10.43;100.00
64192;BME280;50497;50.720;-2.084;2024-01-25T08:32:50;102942.59;;;10.42;100.00
64192;BME280;50497;50.720;-2.084;2024-01-25T08:35:17;102956.91;;;10.43;100.00
64192;BME280;50497;50.720;-2.084;2024-01-25T08:37:42;102953.25;;;10.48;100.00
64192;BME280;50497;50.720;-2.084;2024-01-25T08:40:08;102957.75;;;10.46;100.00
64192;BME280;50497;50.720;-2.084;2024-01-25T08:42:35;102967.59;;;10.44;100.00
64192;BME280;50497;50.720;-2.084;2024-01-25T08:45:00;102965.75;;;10.49;100.00
64192;BME280;50497;50.720;-2.084;2024-01-25T08:47:26;102955.03;;;10.49;100.00
64192;BME280;50497;50.720;-2.084;2024-01-25T08:49:51;102893.31;;;10.60;100.00
64192;BME280;50497;50.720;-2.084;2024-01-25T08:52:17;102891.53;;;10.61;100.00
64192;BME280;50497;50.720;-2.084;2024-01-25T08:54:42;102877.19;;;10.66;100.00
64192;BME280;50497;50.720;-2.084;2024-01-25T08:57:08;102895.94;;;10.65;100.00
64192;BME280;50497;50.720;-2.084;2024-01-25T08:59:34;102915.50;;;10.70;100.00
64192;BME280;50497;50.720;-2.084;2024-01-25T09:02:04;102986.97;;;10.65;100.00
64192;BME280;50497;50.720;-2.084;2024-01-25T09:04:30;103079.72;;;10.69;100.00
64192;BME280;50497;50.720;-2.084;2024-01-25T09:06:57;103159.16;;;10.67;100.00
64192;BME280;50497;50.720;-2.084;2024-01-25T09:09:22;103278.75;;;10.72;100.00
64192;BME280;50497;50.720;-2.084;2024-01-25T09:11:48;103373.31;;;10.81;100.00
64192;BME280;50497;50.720;-2.084;2024-01-25T09:14:13;103487.56;;;10.77;100.00
64192;BME280;50497;50.720;-2.084;2024-01-25T09:16:39;103567.00;;;10.80;100.00
64192;BME280;50497;50.720;-2.084;2024-01-25T09:19:05;103649.13;;;10.82;100.00
64192;BME280;50497;50.720;-2.084;2024-01-25T09:21:30;103675.91;;;10.90;100.00
64192;BME280;50497;50.720;-2.084;2024-01-25T09:23:56;103686.63;;;10.82;100.00
64192;BME280;50497;50.720;-2.084;2024-01-25T09:26:25;103743.75;;;10.94;100.00
64192;BME280;50497;50.720;-2.084;2024-01-25T09:28:50;103726.81;;;10.99;100.00
64192;BME280;50497;50.720;-2.084;2024-01-25T09:31:16;103708.94;;;10.92;100.00
64192;BME280;50497;50.720;-2.084;2024-01-25T09:33:41;103709.81;;;11.02;100.00
64192;BME280;50497;50.720;-2.084;2024-01-25T09:36:07;103694.66;;;10.95;100.00
64192;BME280;50497;50.720;-2.084;2024-01-25T09:38:32;103658.03;;;10.94;100.00
64192;BME280;50497;50.720;-2.084;2024-01-25T09:40:58;103632.97;;;11.13;100.00
64192;BME280;50497;50.720;-2.084;2024-01-25T09:43:25;103585.69;;;11.09;100.00
64192;BME280;50497;50.720;-2.084;2024-01-25T09:45:53;103526.75;;;11.03;100.00
64192;BME280;50497;50.720;-2.084;2024-01-25T09:48:22;103454.44;;;11.00;100.00
64192;BME280;50497;50.720;-2.084;2024-01-25T09:50:47;103427.59;;;11.09;100.00
64192;BME280;50497;50.720;-2.084;2024-01-25T09:53:21;103401.72;;;11.03;100.00
64192;BME280;50497;50.720;-2.084;2024-01-25T09:55:57;103378.47;;;11.04;100.00
64192;BME280;50497;50.720;-2.084;2024-01-25T09:58:35;103366.88;;;11.05;100.00
64192;BME280;50497;50.720;-2.084;2024-01-25T10:01:01;103368.56;;;11.15;100.00
64192;BME280;50497;50.720;-2.084;2024-01-25T10:03:27;103364.19;;;11.08;100.00
64192;BME280;50497;50.720;-2.084;2024-01-25T10:05:52;103391.66;;;11.36;100.00
64192;BME280;50497;50.720;-2.084;2024-01-25T10:08:18;103392.63;;;11.24;100.00
64192;BME280;50497;50.720;-2.084;2024-01-25T10:10:46;103388.16;;;11.26;100.00
64192;BME280;50497;50.720;-2.084;2024-01-25T10:13:12;103394.25;;;11.45;100.00
64192;BME280;50497;50.720;-2.084;2024-01-25T10:15:39;103366.63;;;11.39;100.00
64192;BME280;50497;50.720;-2.084;2024-01-25T10:18:07;103301.38;;;11.37;100.00
64192;BME280;50497;50.720;-2.084;2024-01-25T10:20:38;103254.06;;;11.36;100.00
64192;BME280;50497;50.720;-2.084;2024-01-25T10:23:04;103256.66;;;11.43;100.00
64192;BME280;50497;50.720;-2.084;2024-01-25T10:25:29;103236.94;;;11.51;100.00
64192;BME280;50497;50.720;-2.084;2024-01-25T10:27:55;103249.34;;;11.58;100.00
64192;BME280;50497;50.720;-2.084;2024-01-25T10:30:20;103205.72;;;11.43;100.00
64192;BME280;50497;50.720;-2.084;2024-01-25T10:32:46;103190.38;;;11.58;100.00
64192;BME280;50497;50.720;-2.084;2024-01-25T10:35:12;103147.50;;;11.53;100.00
64192;BME280;50497;50.720;-2.084;2024-01-25T10:37:39;103108.31;;;11.46;100.00
64192;BME280;50497;50.720;-2.084;2024-01-25T10:40:09;103082.13;;;11.63;100.00
64192;BME280;50497;50.720;-2.084;2024-01-25T10:42:35;103056.81;;;11.83;100.00
64192;BME280;50497;50.720;-2.084;2024-01-25T10:45:00;103045.81;;;12.01;100.00
64192;BME280;50497;50.720;-2.084;2024-01-25T10:47:26;102983.38;;;11.90;100.00
64192;BME280;50497;50.720;-2.084;2024-01-25T10:49:56;102945.91;;;11.86;100.00
64192;BME280;50497;50.720;-2.084;2024-01-25T10:52:22;102918.31;;;11.79;100.00
64192;BME280;50497;50.720;-2.084;2024-01-25T10:54:49;102882.84;;;12.13;100.00
64192;BME280;50497;50.720;-2.084;2024-01-25T10:57:15;102883.44;;;12.29;100.00
64192;BME280;50497;50.720;-2.084;2024-01-25T10:59:40;102885.34;;;11.74;100.00
64192;BME280;50497;50.720;-2.084;2024-01-25T11:02:07;102874.44;;;11.81;100.00
64192;BME280;50497;50.720;-2.084;2024-01-25T11:04:32;102869.88;;;11.87;100.00
64192;BME280;50497;50.720;-2.084;2024-01-25T11:07:06;102852.34;;;11.69;100.00
64192;BME280;50497;50.720;-2.084;2024-01-25T11:09:31;102849.06;;;11.53;100.00
64192;BME280;50497;50.720;-2.084;2024-01-25T11:11:58;102849.84;;;11.59;100.00
64192;BME280;50497;50.720;-2.084;2024-01-25T11:14:25;102823.50;;;11.81;100.00
64192;BME280;50497;50.720;-2.084;2024-01-25T11:16:50;102816.97;;;11.96;100.00
64192;BME280;50497;50.720;-2.084;2024-01-25T11:19:18;102789.72;;;11.71;100.00
64192;BME280;50497;50.720;-2.084;2024-01-25T11:21:45;102814.47;;;11.87;100.00
64192;BME280;50497;50.720;-2.084;2024-01-25T11:24:15;102791.03;;;11.97;100.00
64192;BME280;50497;50.720;-2.084;2024-01-25T11:26:44;102769.75;;;11.86;100.00
64192;BME280;50497;50.720;-2.084;2024-01-25T11:29:12;102761.53;;;11.97;100.00
64192;BME280;50497;50.720;-2.084;2024-01-25T11:31:39;102766.09;;;11.92;100.00
64192;BME280;50497;50.720;-2.084;2024-01-25T11:34:05;102758.47;;;11.69;100.00
64192;BME280;50497;50.720;-2.084;2024-01-25T11:36:30;102754.38;;;11.97;100.00
64192;BME280;50497;50.720;-2.084;2024-01-25T11:38:56;102749.94;;;11.95;100.00
64192;BME280;50497;50.720;-2.084;2024-01-25T11:41:22;102732.13;;;11.92;100.00
64192;BME280;50497;50.720;-2.084;2024-01-25T11:43:48;102748.19;;;11.94;100.00
64192;BME280;50497;50.720;-2.084;2024-01-25T11:46:14;102747.13;;;12.01;100.00
64192;BME280;50497;50.720;-2.084;2024-01-25T11:48:41;102761.25;;;12.11;100.00
64192;BME280;50497;50.720;-2.084;2024-01-25T11:51:08;102765.31;;;11.85;100.00
64192;BME280;50497;50.720;-2.084;2024-01-25T11:53:34;102767.72;;;12.00;100.00
64192;BME280;50497;50.720;-2.084;2024-01-25T11:55:59;102763.28;;;11.99;100.00
64192;BME280;50497;50.720;-2.084;2024-01-25T11:58:25;102770.53;;;11.94;100.00
64192;BME280;50497;50.720;-2.084;2024-01-25T12:00:50;102764.50;;;11.81;100.00
64192;BME280;50497;50.720;-2.084;2024-01-25T12:03:16;102739.81;;;11.65;100.00
64192;BME280;50497;50.720;-2.084;2024-01-25T12:05:42;102778.19;;;11.68;100.00
64192;BME280;50497;50.720;-2.084;2024-01-25T12:08:13;102795.34;;;11.59;100.00
64192;BME280;50497;50.720;-2.084;2024-01-25T12:10:49;102847.19;;;11.56;100.00
64192;BME280;50497;50.720;-2.084;2024-01-25T12:13:14;102864.03;;;11.64;100.00
64192;BME280;50497;50.720;-2.084;2024-01-25T12:15:41;102886.56;;;11.54;100.00
64192;BME280;50497;50.720;-2.084;2024-01-25T12:18:07;102924.16;;;11.51;100.00
64192;BME280;50497;50.720;-2.084;2024-01-25T12:20:35;102958.66;;;11.73;100.00
64192;BME280;50497;50.720;-2.084;2024-01-25T12:23:01;102966.97;;;11.56;100.00
64192;BME280;50497;50.720;-2.084;2024-01-25T12:25:26;102998.09;;;11.64;100.00